Time;durP1;ratioP1;P1;durP2;ratioP2;P2;SDS_P1;SDS_P2;PMS_P1;PMS_P2;Temp;Humidity;BMP_temperature;BMP_pressure;BME280_temperature;BME280_humidity;BME280_pressure;Samples;Min_cycle;Max_cycle;Signal;HPM_P1;HPM_P2
2021/12/30 00:00:45;;;;;;;1.90;1.40;;;;;;;2.57;99.55;96254.34;4974934;28;20448;-37
2021/12/30 00:03:13;;;;;;;4.80;1.90;;;;;;;2.55;99.35;96250.31;4975339;28;20471;-37
2021/12/30 00:05:41;;;;;;;2.40;1.57;;;;;;;2.55;99.94;96250.31;4974814;28;20999;-38
2021/12/30 00:08:08;;;;;;;3.03;1.97;;;;;;;2.58;100.00;96257.75;4974719;28;20959;-39
2021/12/30 00:10:36;;;;;;;4.97;2.77;;;;;;;2.63;100.00;96258.78;4974939;28;20448;-38
2021/12/30 00:13:05;;;;;;;6.77;4.03;;;;;;;2.68;100.00;96258.19;4974701;28;20444;-38
2021/12/30 00:15:33;;;;;;;4.87;2.87;;;;;;;2.69;100.00;96249.34;4974665;28;20496;-38
2021/12/30 00:18:00;;;;;;;2.63;2.40;;;;;;;2.72;100.00;96264.66;4975512;28;20455;-39
2021/12/30 00:20:27;;;;;;;3.20;2.37;;;;;;;2.74;100.00;96260.03;4974931;28;20539;-39
2021/12/30 00:22:55;;;;;;;2.60;2.10;;;;;;;2.76;100.00;96265.88;4974600;28;20507;-40
2021/12/30 00:25:22;;;;;;;4.53;2.30;;;;;;;2.79;100.00;96270.72;4974652;28;20448;-38
2021/12/30 00:27:49;;;;;;;5.60;3.40;;;;;;;2.81;100.00;96268.69;4974596;28;20959;-38
2021/12/30 00:30:18;;;;;;;5.67;3.33;;;;;;;2.83;100.00;96277.16;4974826;28;20831;-38
2021/12/30 00:32:45;;;;;;;4.90;2.53;;;;;;;2.83;100.00;96277.16;4974761;28;20449;-38
2021/12/30 00:35:13;;;;;;;2.10;1.67;;;;;;;2.84;100.00;96273.56;4974722;28;20492;-39
2021/12/30 00:37:40;;;;;;;2.70;1.70;;;;;;;2.85;100.00;96269.91;4974799;28;20448;-38
2021/12/30 00:40:09;;;;;;;1.80;1.70;;;;;;;2.86;100.00;96270.72;4974749;28;20814;-39
2021/12/30 00:42:36;;;;;;;2.77;1.50;;;;;;;2.86;100.00;96268.91;4974431;28;20448;-38
2021/12/30 00:45:03;;;;;;;2.50;1.87;;;;;;;2.87;100.00;96278.38;4974614;28;20460;-38
2021/12/30 00:47:32;;;;;;;1.73;1.60;;;;;;;2.89;100.00;96280.00;4974692;28;20448;-39
2021/12/30 00:49:59;;;;;;;2.53;1.57;;;;;;;2.89;100.00;96274.78;4974634;28;20531;-38
2021/12/30 00:52:27;;;;;;;4.90;1.90;;;;;;;2.90;100.00;96279.00;4974389;28;21015;-38
2021/12/30 00:54:54;;;;;;;1.77;1.67;;;;;;;2.91;100.00;96278.00;4974828;28;20500;-37
2021/12/30 00:57:22;;;;;;;4.70;1.87;;;;;;;2.90;100.00;96281.63;4978215;28;20440;-38
2021/12/30 00:59:49;;;;;;;2.17;1.83;;;;;;;2.90;100.00;96271.94;4978197;28;20455;-39
2021/12/30 01:02:16;;;;;;;1.97;1.80;;;;;;;2.89;100.00;96274.78;4978143;28;20447;-38
2021/12/30 01:04:45;;;;;;;2.93;1.80;;;;;;;2.89;100.00;96285.25;4978072;28;20448;-38
2021/12/30 01:07:12;;;;;;;2.50;2.30;;;;;;;2.86;100.00;96279.41;4977991;28;20503;-37
2021/12/30 01:09:40;;;;;;;3.07;2.10;;;;;;;2.90;100.00;96285.03;4977945;28;20791;-38
2021/12/30 01:12:08;;;;;;;4.10;3.00;;;;;;;2.90;100.00;96286.84;4978224;28;20448;-37
2021/12/30 01:14:36;;;;;;;5.13;4.53;;;;;;;2.91;100.00;96280.63;4977738;28;20484;-37
2021/12/30 01:17:16;;;;;;;8.20;6.07;;;;;;;2.90;100.00;96289.47;4977912;28;20440;-38
2021/12/30 01:19:45;;;;;;;15.93;9.57;;;;;;;2.82;100.00;96285.25;4978042;28;20428;-38
2021/12/30 01:22:14;;;;;;;15.27;8.20;;;;;;;2.80;100.00;96288.06;4978100;28;20849;-38
2021/12/30 01:24:42;;;;;;;13.23;7.83;;;;;;;2.76;100.00;96284.22;4977932;28;20452;-38
2021/12/30 01:27:09;;;;;;;8.30;5.70;;;;;;;2.76;100.00;96283.44;4977642;28;20959;-38
2021/12/30 01:29:37;;;;;;;7.70;4.93;;;;;;;2.67;100.00;96285.44;4978084;28;20804;-37
2021/12/30 01:32:05;;;;;;;4.80;3.67;;;;;;;2.52;100.00;96287.38;4977818;28;20450;-39
2021/12/30 01:34:33;;;;;;;7.13;4.80;;;;;;;2.48;100.00;96294.03;4977441;28;20452;-37
2021/12/30 01:37:03;;;;;;;2.57;2.30;;;;;;;2.42;100.00;96290.38;4977393;28;20448;-39
2021/12/30 01:39:31;;;;;;;4.67;3.50;;;;;;;2.35;100.00;96285.13;4977990;28;20531;-38
2021/12/30 01:41:59;;;;;;;5.47;3.97;;;;;;;2.25;100.00;96295.97;4977648;28;20448;-38
2021/12/30 01:44:28;;;;;;;8.50;6.73;;;;;;;2.18;100.00;96294.34;4977762;28;20448;-37
2021/12/30 01:46:56;;;;;;;9.90;6.77;;;;;;;2.19;100.00;96298.56;4977227;28;20550;-39
2021/12/30 01:49:24;;;;;;;6.03;4.20;;;;;;;2.25;100.00;96295.16;4977237;28;20455;-38
2021/12/30 01:51:52;;;;;;;10.83;5.00;;;;;;;2.34;100.00;96301.03;4977341;28;20555;-38
2021/12/30 01:54:21;;;;;;;7.80;5.07;;;;;;;2.37;100.00;96288.38;4977503;28;20531;-38
2021/12/30 01:56:50;;;;;;;6.73;4.90;;;;;;;2.32;100.00;96292.56;4977101;28;20464;-38
2021/12/30 01:59:18;;;;;;;3.80;3.47;;;;;;;2.23;100.00;96303.22;4977313;28;20452;-36
2021/12/30 02:01:46;;;;;;;8.67;5.00;;;;;;;2.14;100.00;96309.63;4977298;28;20449;-37
2021/12/30 02:04:14;;;;;;;8.30;5.87;;;;;;;2.14;100.00;96309.63;4976864;28;20967;-38
2021/12/30 02:06:41;;;;;;;4.20;3.53;;;;;;;2.16;100.00;96301.59;4976333;28;20461;-38
2021/12/30 02:09:08;;;;;;;4.47;3.03;;;;;;;2.20;100.00;96306.22;4976896;28;20929;-37
2021/12/30 02:11:37;;;;;;;2.20;2.00;;;;;;;2.14;100.00;96303.59;4976905;28;20447;-38
2021/12/30 02:14:04;;;;;;;2.27;2.17;;;;;;;2.24;100.00;96322.38;4976878;28;20448;-36
2021/12/30 02:16:31;;;;;;;1.90;1.80;;;;;;;2.31;100.00;96325.81;4977162;28;20496;-37
2021/12/30 02:18:59;;;;;;;4.50;2.83;;;;;;;2.34;100.00;96312.31;4976681;28;20455;-37
2021/12/30 02:21:28;;;;;;;2.63;2.43;;;;;;;2.38;100.00;96316.16;4976761;28;20448;-37
2021/12/30 02:23:57;;;;;;;2.90;2.30;;;;;;;2.44;100.00;96320.63;4976797;28;20453;-37
2021/12/30 02:26:24;;;;;;;2.13;1.87;;;;;;;2.50;100.00;96328.72;4976601;28;20452;-39
2021/12/30 02:28:51;;;;;;;8.43;4.50;;;;;;;2.53;100.00;96333.56;4976792;28;20444;-38
2021/12/30 02:31:21;;;;;;;70.00;25.93;;;;;;;2.50;100.00;96333.97;4976416;28;20448;-37
2021/12/30 02:33:49;;;;;;;14.53;6.73;;;;;;;2.42;100.00;96333.13;4976693;28;20445;-38
2021/12/30 02:36:30;;;;;;;61.10;23.57;;;;;;;2.29;100.00;96333.06;4976703;28;20507;-36
2021/12/30 02:38:59;;;;;;;26.47;9.30;;;;;;;2.26;100.00;96336.09;4976370;28;20445;-36
2021/12/30 02:41:27;;;;;;;8.03;4.97;;;;;;;2.28;100.00;96336.72;4976648;28;20532;-37
2021/12/30 02:43:55;;;;;;;11.57;6.77;;;;;;;2.29;100.00;96342.75;4977620;28;20452;-36
2021/12/30 02:46:23;;;;;;;6.03;3.70;;;;;;;2.33;100.00;96351.84;4976144;28;20448;-38
2021/12/30 02:48:52;;;;;;;3.67;2.20;;;;;;;2.36;100.00;96344.38;4976316;28;20535;-35
2021/12/30 02:51:20;;;;;;;19.17;8.13;;;;;;;2.20;100.00;96326.38;4976398;28;20472;-38
2021/12/30 02:53:48;;;;;;;39.77;16.90;;;;;;;2.37;100.00;96356.50;4975944;28;20967;-37
2021/12/30 02:56:17;;;;;;;16.93;5.97;;;;;;;2.39;100.00;96349.25;4975918;28;21046;-38
2021/12/30 02:58:44;;;;;;;2.50;1.67;;;;;;;2.46;100.00;96363.16;4976284;28;20932;-38
2021/12/30 03:01:16;;;;;;;1.37;1.27;;;;;;;2.31;100.00;96344.16;4975839;28;20456;-38
2021/12/30 03:03:44;;;;;;;1.87;1.40;;;;;;;2.50;100.00;96387.19;4975918;28;20445;-35
2021/12/30 03:06:13;;;;;;;3.33;1.30;;;;;;;2.48;100.00;96372.66;4975826;28;20448;-38
2021/12/30 03:08:42;;;;;;;6.00;2.80;;;;;;;2.56;100.00;96372.47;4976063;28;20810;-38
2021/12/30 03:11:10;;;;;;;10.67;5.77;;;;;;;2.60;100.00;96374.53;4975984;28;20950;-39
2021/12/30 03:13:42;;;;;;;5.73;3.70;;;;;;;2.57;100.00;96379.34;4975937;28;20445;-38
2021/12/30 03:16:12;;;;;;;2.87;2.63;;;;;;;2.58;100.00;96384.41;4975604;28;20484;-38
2021/12/30 03:18:41;;;;;;;3.00;2.50;;;;;;;2.55;100.00;96376.09;4974858;28;20487;-38
2021/12/30 03:21:10;;;;;;;1.80;1.40;;;;;;;2.59;100.00;96395.69;4975523;28;20937;-38
2021/12/30 03:23:38;;;;;;;1.70;1.23;;;;;;;2.62;100.00;96390.03;4975439;28;20817;-37
2021/12/30 03:26:09;;;;;;;1.40;1.30;;;;;;;2.63;100.00;96396.91;4975797;28;20849;-39
2021/12/30 03:28:40;;;;;;;2.13;1.30;;;;;;;2.67;100.00;96390.28;4975634;28;20849;-38
2021/12/30 03:31:07;;;;;;;1.43;1.33;;;;;;;2.71;100.00;96391.50;4975646;28;20429;-37
2021/12/30 03:33:35;;;;;;;2.27;1.07;;;;;;;2.70;100.00;96397.75;4975252;28;21045;-38
2021/12/30 03:36:05;;;;;;;10.20;5.40;;;;;;;2.68;100.00;96391.88;4975446;28;20492;-37
2021/12/30 03:38:35;;;;;;;58.30;20.50;;;;;;;2.57;100.00;96408.19;4975376;28;20449;-37
2021/12/30 03:41:03;;;;;;;19.07;8.03;;;;;;;2.39;100.00;96387.75;4975140;28;20444;-37
2021/12/30 03:43:30;;;;;;;10.10;5.20;;;;;;;2.51;100.00;96411.56;4975417;28;20457;-39
2021/12/30 03:46:00;;;;;;;2.87;2.67;;;;;;;2.50;100.00;96415.22;4975217;28;20454;-37
2021/12/30 03:48:33;;;;;;;1.37;1.27;;;;;;;2.50;100.00;96416.00;4975019;28;20459;-38
2021/12/30 03:51:04;;;;;;;1.70;1.60;;;;;;;2.52;100.00;96421.03;4975000;28;20444;-37
2021/12/30 03:53:37;;;;;;;1.30;1.10;;;;;;;2.51;100.00;96419.44;4974878;28;20472;-38
2021/12/30 03:56:05;;;;;;;1.63;1.47;;;;;;;2.53;100.00;96422.66;4975186;28;20484;-38
2021/12/30 03:58:32;;;;;;;3.43;3.13;;;;;;;2.56;100.00;96427.50;4974988;28;20452;-37
2021/12/30 04:01:01;;;;;;;9.13;7.40;;;;;;;2.58;100.00;96425.50;4975210;28;20448;-38
2021/12/30 04:03:29;;;;;;;9.80;7.60;;;;;;;2.57;100.00;96429.94;4975155;28;20526;-37
2021/12/30 04:05:56;;;;;;;9.40;6.43;;;;;;;2.59;100.00;96445.50;4975280;28;20448;-38
2021/12/30 04:08:23;;;;;;;3.47;3.17;;;;;;;2.62;100.00;96442.47;4974874;28;20444;-38
2021/12/30 04:10:51;;;;;;;5.30;2.67;;;;;;;2.63;100.00;96451.97;4975091;28;20445;-36
2021/12/30 04:13:18;;;;;;;9.10;5.20;;;;;;;2.66;100.00;96448.94;4974655;28;20800;-38
2021/12/30 04:15:45;;;;;;;5.70;3.70;;;;;;;2.68;100.00;96452.19;4974944;28;20503;-38
2021/12/30 04:18:14;;;;;;;2.90;2.60;;;;;;;2.68;100.00;96460.03;4974596;28;20456;-37
2021/12/30 04:20:41;;;;;;;1.90;1.57;;;;;;;2.68;100.00;96478.38;4974927;28;20448;-38
2021/12/30 04:23:08;;;;;;;3.00;1.53;;;;;;;2.68;100.00;96478.38;4974718;28;20444;-38
2021/12/30 04:25:36;;;;;;;2.83;2.23;;;;;;;2.68;100.00;96481.00;4974595;28;20491;-38
2021/12/30 04:28:04;;;;;;;4.87;2.77;;;;;;;2.67;100.00;96489.91;4974614;28;20456;-38
2021/12/30 04:30:31;;;;;;;4.60;2.53;;;;;;;2.68;100.00;96499.38;4974197;28;20445;-38
2021/12/30 04:32:59;;;;;;;5.43;2.60;;;;;;;2.67;100.00;96492.50;4974498;28;20450;-38
2021/12/30 04:35:27;;;;;;;1.87;1.70;;;;;;;2.69;100.00;96495.75;4974706;28;20455;-38
2021/12/30 04:37:55;;;;;;;4.40;2.97;;;;;;;2.67;100.00;96497.75;4974421;28;20452;-38
2021/12/30 04:40:22;;;;;;;7.80;4.97;;;;;;;2.66;99.32;96501.38;4974786;28;20448;-37
2021/12/30 04:42:49;;;;;;;6.37;4.80;;;;;;;2.64;99.34;96503.38;4974400;28;20444;-39
2021/12/30 04:45:17;;;;;;;7.30;5.00;;;;;;;2.66;98.84;96506.59;4974440;28;20444;-38
2021/12/30 04:47:44;;;;;;;6.10;4.37;;;;;;;2.61;98.63;96514.25;4974385;28;20451;-38
2021/12/30 04:50:14;;;;;;;18.73;14.50;;;;;;;2.60;98.76;96520.47;4974355;28;20933;-38
2021/12/30 04:52:43;;;;;;;6.50;6.00;;;;;;;2.60;98.85;96517.84;4974079;28;20476;-38
2021/12/30 04:55:10;;;;;;;6.63;5.13;;;;;;;2.59;98.89;96521.50;4974348;28;20443;-38
2021/12/30 04:57:38;;;;;;;6.23;4.20;;;;;;;2.60;98.64;96533.59;4974214;28;20506;-38
2021/12/30 05:00:09;;;;;;;23.43;10.50;;;;;;;2.60;98.61;96530.97;4974277;28;20933;-37
2021/12/30 05:02:55;;;;;;;43.00;18.00;;;;;;;2.60;98.85;96537.03;4974310;28;20432;-38
2021/12/30 05:05:23;;;;;;;23.73;11.80;;;;;;;2.62;98.87;96534.22;4974685;28;20455;-38
2021/12/30 05:07:52;;;;;;;5.47;3.90;;;;;;;2.64;98.94;96540.06;4974755;28;20449;-38
2021/12/30 05:10:19;;;;;;;9.73;4.70;;;;;;;2.65;98.99;96546.94;4974170;28;20930;-38
2021/12/30 05:12:47;;;;;;;6.13;4.60;;;;;;;2.64;98.95;96550.56;4974147;28;20520;-38
2021/12/30 05:15:14;;;;;;;4.23;3.67;;;;;;;2.63;98.73;96554.19;4974176;28;20441;-38
2021/12/30 05:17:43;;;;;;;3.13;2.90;;;;;;;2.61;98.76;96556.19;4974111;28;20495;-38
2021/12/30 05:20:12;;;;;;;10.27;6.77;;;;;;;2.61;98.51;96556.19;4974091;28;20862;-38
2021/12/30 05:22:39;;;;;;;7.30;4.70;;;;;;;2.60;98.95;96557.19;4974415;28;20487;-38
2021/12/30 05:25:10;;;;;;;4.70;3.67;;;;;;;2.61;98.89;96566.69;4974089;28;20447;-38
2021/12/30 05:27:37;;;;;;;16.83;10.43;;;;;;;2.62;98.84;96569.13;4974567;28;20433;-36
2021/12/30 05:30:07;;;;;;;15.67;6.03;;;;;;;2.63;99.17;96567.28;4971414;28;20448;-38
2021/12/30 05:32:34;;;;;;;7.23;5.33;;;;;;;2.62;98.96;96569.13;4973907;28;20444;-38
2021/12/30 05:35:01;;;;;;;5.43;4.63;;;;;;;2.62;99.11;96578.75;4973153;28;20440;-39
2021/12/30 05:37:29;;;;;;;273.90;114.47;;;;;;;2.61;98.15;96577.16;4973811;28;20999;-36
2021/12/30 05:39:56;;;;;;;48.13;25.43;;;;;;;2.59;97.51;96582.59;4973659;28;20491;-39
2021/12/30 05:42:24;;;;;;;13.03;9.30;;;;;;;2.58;97.59;96577.53;4975240;28;20499;-39
2021/12/30 05:44:51;;;;;;;39.83;15.73;;;;;;;2.60;97.51;96586.00;4977219;28;20444;-39
2021/12/30 05:47:19;;;;;;;12.50;7.83;;;;;;;2.62;98.06;96594.50;4977247;28;20440;-38
2021/12/30 05:49:46;;;;;;;12.80;8.83;;;;;;;2.63;98.06;96598.75;4977491;28;20778;-37
2021/12/30 05:52:13;;;;;;;23.33;13.27;;;;;;;2.61;97.77;96608.63;4977214;28;20542;-39
2021/12/30 05:54:40;;;;;;;6.47;5.87;;;;;;;2.42;96.17;96594.34;4977224;28;20452;-39
2021/12/30 05:57:07;;;;;;;7.23;5.10;;;;;;;2.39;96.60;96616.50;4976934;28;20541;-39
2021/12/30 05:59:36;;;;;;;5.50;4.80;;;;;;;2.35;96.96;96615.25;4977482;28;20448;-40
2021/12/30 06:02:04;;;;;;;8.00;4.87;;;;;;;2.33;97.07;96627.75;4976858;28;20938;-35
2021/12/30 06:04:31;;;;;;;4.67;3.40;;;;;;;2.36;97.71;96631.78;4976810;28;20936;-41
2021/12/30 06:06:59;;;;;;;5.83;4.23;;;;;;;2.42;98.16;96631.03;4976666;28;20448;-40
2021/12/30 06:09:26;;;;;;;14.20;11.50;;;;;;;2.47;98.34;96639.13;4976858;28;20453;-39
2021/12/30 06:11:53;;;;;;;33.73;18.33;;;;;;;2.46;98.92;96637.53;4976808;28;20452;-39
2021/12/30 06:14:20;;;;;;;30.40;19.00;;;;;;;2.55;99.14;96648.69;4976991;28;20964;-39
2021/12/30 06:16:49;;;;;;;21.90;14.30;;;;;;;2.57;99.03;96657.16;4976340;28;20492;-38
2021/12/30 06:19:16;;;;;;;21.40;15.10;;;;;;;2.56;99.67;96660.78;4976767;28;20452;-39
2021/12/30 06:21:44;;;;;;;32.03;17.43;;;;;;;2.61;98.79;96667.09;4976438;28;20504;-38
2021/12/30 06:24:12;;;;;;;14.90;9.57;;;;;;;2.66;98.11;96677.00;4976841;28;20456;-39
2021/12/30 06:26:39;;;;;;;16.83;9.97;;;;;;;2.65;97.65;96676.19;4976151;28;20455;-39
2021/12/30 06:29:06;;;;;;;23.47;13.27;;;;;;;2.60;98.03;96691.69;4976832;28;20801;-38
2021/12/30 06:31:33;;;;;;;34.77;18.20;;;;;;;2.73;98.10;96680.50;4976318;28;20459;-38
2021/12/30 06:34:02;;;;;;;36.77;22.37;;;;;;;2.73;97.75;96693.63;4976828;28;20447;-39
2021/12/30 06:36:29;;;;;;;43.10;26.70;;;;;;;2.75;97.50;96699.47;4976528;28;20487;-37
2021/12/30 06:38:56;;;;;;;32.13;23.80;;;;;;;2.78;97.75;96699.09;4976385;28;20822;-38
2021/12/30 06:41:24;;;;;;;70.33;41.07;;;;;;;2.83;97.54;96707.19;4976234;28;20495;-38
2021/12/30 06:43:51;;;;;;;101.40;57.57;;;;;;;2.86;97.41;96711.25;4976108;28;20448;-38
2021/12/30 06:46:20;;;;;;;41.93;24.90;;;;;;;2.87;97.79;96718.94;4976486;28;20456;-38
2021/12/30 06:48:47;;;;;;;35.80;20.00;;;;;;;2.85;96.60;96723.56;4975610;28;20476;-38
2021/12/30 06:51:18;;;;;;;30.03;20.80;;;;;;;2.91;96.78;96723.81;4976394;28;20448;-39
2021/12/30 06:53:46;;;;;;;25.60;14.57;;;;;;;2.91;96.76;96723.81;4975772;28;20480;-39
2021/12/30 06:56:14;;;;;;;18.77;10.90;;;;;;;2.95;96.54;96731.09;4976316;28;20932;-39
2021/12/30 06:58:41;;;;;;;34.90;22.10;;;;;;;3.01;96.50;96740.00;4976313;28;20440;-39
2021/12/30 07:01:09;;;;;;;16.77;12.00;;;;;;;3.05;96.40;96728.16;4976210;28;20832;-39
2021/12/30 07:03:36;;;;;;;20.47;12.87;;;;;;;3.07;95.73;96744.50;4976117;28;20441;-38
2021/12/30 07:06:04;;;;;;;26.70;18.47;;;;;;;3.05;95.46;96746.50;4976255;28;20519;-37
2021/12/30 07:08:32;;;;;;;26.53;15.33;;;;;;;3.07;95.80;96752.38;4975784;28;20452;-37
2021/12/30 07:11:00;;;;;;;30.23;18.10;;;;;;;3.21;98.97;96751.50;4975827;28;20443;-36
2021/12/30 07:13:27;;;;;;;34.63;15.53;;;;;;;3.54;100.00;96764.03;4975646;28;20449;-38
2021/12/30 07:15:54;;;;;;;40.30;24.23;;;;;;;3.89;100.00;96774.53;4976165;28;20452;-38
2021/12/30 07:18:21;;;;;;;75.37;35.37;;;;;;;4.09;100.00;96775.44;4975058;28;20499;-38
2021/12/30 07:20:48;;;;;;;91.07;38.43;;;;;;;4.02;98.16;96771.97;4975719;28;20453;-39
2021/12/30 07:23:15;;;;;;;43.87;20.30;;;;;;;3.92;96.08;96779.41;4975246;28;20837;-38
2021/12/30 07:25:44;;;;;;;57.03;25.10;;;;;;;3.84;94.58;96792.69;4974832;28;20455;-38
2021/12/30 07:28:11;;;;;;;20.53;11.30;;;;;;;3.72;94.01;96778.47;4975206;28;20450;-38
2021/12/30 07:30:38;;;;;;;62.40;28.80;;;;;;;3.62;91.72;96790.13;4975629;28;20448;-38
2021/12/30 07:33:07;;;;;;;53.83;30.43;;;;;;;3.55;92.31;96784.03;4975378;28;20949;-36
2021/12/30 07:35:36;;;;;;;41.20;24.10;;;;;;;3.42;93.04;96774.25;4975374;28;20481;-38
2021/12/30 07:38:04;;;;;;;35.40;20.70;;;;;;;3.52;92.81;96787.03;4975439;28;20562;-38
2021/12/30 07:40:34;;;;;;;37.70;21.43;;;;;;;3.56;93.35;96795.34;4974927;28;20451;-35
2021/12/30 07:43:03;;;;;;;34.33;22.83;;;;;;;3.51;92.52;96802.97;4974936;28;20798;-38
2021/12/30 07:45:30;;;;;;;30.03;19.67;;;;;;;3.48;91.64;96806.78;4974240;28;20498;-39
2021/12/30 07:47:57;;;;;;;43.40;22.43;;;;;;;3.45;91.72;96801.94;4974293;28;20452;-39
2021/12/30 07:50:25;;;;;;;42.70;23.60;;;;;;;3.45;92.39;96807.19;4975358;28;20467;-38
2021/12/30 07:52:54;;;;;;;32.30;22.70;;;;;;;3.42;92.10;96816.25;4974191;28;20507;-38
2021/12/30 07:55:21;;;;;;;22.93;14.57;;;;;;;3.41;92.17;96813.81;4974365;28;20451;-36
2021/12/30 07:57:48;;;;;;;41.67;27.57;;;;;;;3.38;92.43;96819.44;4974583;28;20488;-36
2021/12/30 08:00:19;;;;;;;27.37;17.53;;;;;;;3.37;92.31;96823.06;4974492;28;20917;-37
2021/12/30 08:02:47;;;;;;;36.50;22.87;;;;;;;3.36;92.19;96824.06;4974608;28;20516;-37
2021/12/30 08:05:16;;;;;;;27.00;15.50;;;;;;;3.41;92.67;96834.81;4974077;28;20452;-37
2021/12/30 08:07:45;;;;;;;47.20;21.30;;;;;;;3.52;93.86;96829.03;4975125;28;20476;-38
2021/12/30 08:10:14;;;;;;;28.60;13.57;;;;;;;3.63;93.72;96831.13;4974861;28;20448;-38
2021/12/30 08:12:43;;;;;;;31.37;15.93;;;;;;;3.73;93.13;96832.63;4974756;28;20444;-37
2021/12/30 08:15:12;;;;;;;62.20;33.73;;;;;;;3.76;91.99;96834.84;4975022;28;20467;-38
2021/12/30 08:17:42;;;;;;;107.27;49.03;;;;;;;3.83;92.29;96843.59;4974112;28;20496;-39
2021/12/30 08:20:10;;;;;;;225.97;93.17;;;;;;;3.85;92.60;96846.81;4973965;28;20948;-38
2021/12/30 08:22:38;;;;;;;175.07;82.70;;;;;;;3.97;92.39;96847.91;4973895;28;20449;-37
2021/12/30 08:25:07;;;;;;;57.93;33.20;;;;;;;3.95;92.09;96836.00;4974413;28;20460;-38
2021/12/30 08:27:34;;;;;;;43.83;23.30;;;;;;;4.13;91.88;96853.88;4972050;28;20815;-39
2021/12/30 08:30:02;;;;;;;31.33;18.63;;;;;;;4.21;92.13;96869.47;4974615;28;20448;-38
2021/12/30 08:32:29;;;;;;;41.47;22.37;;;;;;;4.28;91.76;96867.69;4974666;28;20448;-38
2021/12/30 08:34:58;;;;;;;32.73;19.87;;;;;;;4.35;91.73;96876.44;4974823;28;20507;-38
2021/12/30 08:37:25;;;;;;;30.17;16.77;;;;;;;4.40;91.41;96860.88;4973998;28;20523;-38
2021/12/30 08:39:52;;;;;;;23.33;14.97;;;;;;;4.43;91.18;96873.66;4974735;28;20448;-37
2021/12/30 08:42:22;;;;;;;23.50;17.13;;;;;;;4.36;90.78;96875.44;4974667;28;20444;-37
2021/12/30 08:44:49;;;;;;;22.60;16.87;;;;;;;4.42;90.19;96874.66;4969261;28;20456;-38
2021/12/30 08:47:17;;;;;;;19.27;11.10;;;;;;;4.46;89.99;96883.78;4953305;28;20445;-37
2021/12/30 08:49:46;;;;;;;26.73;17.63;;;;;;;4.46;89.53;96886.41;4953530;28;20453;-37
2021/12/30 08:52:17;;;;;;;21.70;14.90;;;;;;;4.43;88.22;96881.53;4953966;28;20893;-38
2021/12/30 08:54:44;;;;;;;29.97;23.03;;;;;;;4.41;89.33;96896.69;4955404;28;20441;-38
2021/12/30 08:57:12;;;;;;;25.47;14.33;;;;;;;4.41;89.51;96903.75;4954032;28;20481;-37
2021/12/30 08:59:39;;;;;;;27.47;13.63;;;;;;;4.38;89.81;96889.19;4954132;28;20902;-37
2021/12/30 09:02:08;;;;;;;12.80;9.00;;;;;;;4.34;89.37;96898.47;4970008;28;20444;-35
2021/12/30 09:04:36;;;;;;;16.63;13.57;;;;;;;4.20;89.79;96894.16;4954330;28;20918;-39
2021/12/30 09:07:04;;;;;;;17.80;13.63;;;;;;;4.22;90.48;96905.28;4965462;28;20452;-37
2021/12/30 09:09:32;;;;;;;14.45;10.65;;;;;;;4.22;90.84;96905.28;4965165;28;20433;-36
2021/12/30 09:11:59;;;;;;;25.97;10.93;;;;;;;4.18;89.54;96906.69;4966060;28;20215;-36
2021/12/30 09:14:27;;;;;;;15.70;10.50;;;;;;;4.20;90.03;96907.28;4973830;28;20821;-37
2021/12/30 09:16:54;;;;;;;29.07;17.90;;;;;;;4.11;88.28;96909.28;4975816;28;20456;-38
2021/12/30 09:19:21;;;;;;;27.20;16.60;;;;;;;3.93;89.16;96914.97;4977778;28;20443;-39
2021/12/30 09:21:48;;;;;;;18.47;9.87;;;;;;;3.74;89.14;96913.03;4978076;28;20444;-38
2021/12/30 09:24:15;;;;;;;30.13;17.70;;;;;;;3.53;90.44;96925.19;4977440;28;20455;-37
2021/12/30 09:26:44;;;;;;;54.43;30.43;;;;;;;3.52;91.94;96934.03;4976009;28;20455;-36
2021/12/30 09:29:14;;;;;;;14.70;10.30;;;;;;;3.34;90.47;96944.19;4969902;28;20453;-38
2021/12/30 09:31:43;;;;;;;33.07;20.57;;;;;;;3.23;91.59;96959.41;4958570;28;20440;-38
2021/12/30 09:34:10;;;;;;;29.03;16.10;;;;;;;3.21;92.11;96945.66;4969472;28;20460;-38
2021/12/30 09:36:38;;;;;;;81.77;34.83;;;;;;;3.13;92.18;96948.38;4958043;28;20453;-37
2021/12/30 09:39:07;;;;;;;27.43;13.77;;;;;;;3.00;93.69;96948.25;4958331;28;20585;-38
2021/12/30 09:41:37;;;;;;;16.47;12.57;;;;;;;3.05;93.72;96951.13;4958055;28;20941;-36
2021/12/30 09:44:06;;;;;;;24.67;15.60;;;;;;;2.99;93.22;96944.81;4958383;28;20481;-37
2021/12/30 09:46:34;;;;;;;20.13;9.67;;;;;;;3.02;94.42;96956.75;4958066;28;20477;-37
2021/12/30 09:49:02;;;;;;;24.67;14.77;;;;;;;3.06;94.47;96953.56;4957890;28;20445;-36
2021/12/30 09:51:29;;;;;;;25.40;13.40;;;;;;;3.17;95.33;96965.41;4957732;28;20454;-37
2021/12/30 09:53:56;;;;;;;33.20;19.53;;;;;;;3.25;95.79;96964.47;4957930;28;20448;-37
2021/12/30 09:56:24;;;;;;;14.07;8.23;;;;;;;3.30;94.60;96964.72;4957812;28;20934;-36
2021/12/30 09:58:52;;;;;;;37.77;16.50;;;;;;;3.32;94.55;96967.19;4957729;28;20499;-35
2021/12/30 10:01:20;;;;;;;85.33;44.23;;;;;;;3.36;94.15;96968.44;4957773;28;20445;-38
2021/12/30 10:03:49;;;;;;;29.93;22.73;;;;;;;3.45;94.58;96964.69;4957983;28;20921;-38
2021/12/30 10:06:18;;;;;;;17.37;15.33;;;;;;;3.52;94.46;96962.13;4957923;28;20453;-37
2021/12/30 10:08:55;;;;;;;34.33;22.63;;;;;;;3.59;94.22;96965.59;4957561;28;20445;-38
2021/12/30 10:11:22;;;;;;;20.43;16.67;;;;;;;3.65;93.37;96965.66;4957533;28;20433;-38
2021/12/30 10:13:53;;;;;;;21.13;12.83;;;;;;;3.65;93.41;96963.03;4957488;28;20457;-37
2021/12/30 10:16:23;;;;;;;28.07;15.33;;;;;;;3.73;93.32;96974.44;4957429;28;20457;-38
2021/12/30 10:18:52;;;;;;;11.63;6.67;;;;;;;3.77;92.70;96975.69;4957280;28;20490;-38
2021/12/30 10:21:22;;;;;;;18.43;12.10;;;;;;;3.81;92.73;96983.00;4957649;28;20841;-36
2021/12/30 10:23:53;;;;;;;24.37;12.63;;;;;;;3.83;93.18;96974.91;4957485;28;20533;-38
2021/12/30 10:26:20;;;;;;;33.23;20.87;;;;;;;3.76;92.57;96972.22;4957594;28;20436;-38
2021/12/30 10:28:50;;;;;;;93.10;45.90;;;;;;;3.81;92.86;96977.75;4957056;28;20449;-39
2021/12/30 10:31:20;;;;;;;80.87;41.90;;;;;;;3.75;91.28;96978.50;4957615;28;20488;-37
2021/12/30 10:33:53;;;;;;;53.47;29.00;;;;;;;3.64;92.13;96982.44;4957139;28;20434;-38
2021/12/30 10:36:21;;;;;;;33.23;21.83;;;;;;;3.58;92.82;96987.63;4957103;28;20448;-36
2021/12/30 10:38:49;;;;;;;27.50;18.97;;;;;;;3.54;93.23;96987.19;4957170;28;20904;-37
2021/12/30 10:41:16;;;;;;;53.23;33.53;;;;;;;3.57;93.01;96985.97;4957343;28;20452;-38
2021/12/30 10:43:47;;;;;;;35.00;22.47;;;;;;;3.54;93.41;96986.38;4956888;28;20457;-38
2021/12/30 10:46:18;;;;;;;85.40;32.83;;;;;;;3.57;93.79;96984.19;4957548;28;20434;-36
2021/12/30 10:48:53;;;;;;;104.73;49.30;;;;;;;3.69;93.69;96989.75;4956816;28;20801;-38
2021/12/30 10:51:23;;;;;;;117.80;55.37;;;;;;;3.69;92.22;96987.94;4957295;28;20515;-38
2021/12/30 10:53:52;;;;;;;225.53;104.83;;;;;;;3.72;92.62;96993.81;4956772;28;21051;-39
2021/12/30 10:56:32;;;;;;;102.93;50.20;;;;;;;3.67;92.52;96987.31;4956688;28;20452;-38
2021/12/30 10:59:23;;;;;;;55.23;26.07;;;;;;;3.72;92.53;97004.31;4956642;28;20480;-37
2021/12/30 11:01:54;;;;;;;87.50;35.93;;;;;;;3.78;92.38;97004.38;4956700;28;20513;-37
2021/12/30 11:04:35;;;;;;;26.13;16.20;;;;;;;3.69;91.66;96995.81;4956916;28;20430;-37
2021/12/30 11:07:03;;;;;;;35.93;17.13;;;;;;;3.83;92.82;97001.16;4956600;28;20786;-37
2021/12/30 11:09:31;;;;;;;36.40;20.70;;;;;;;3.84;90.21;97008.06;4956398;28;20457;-37
2021/12/30 11:12:02;;;;;;;40.37;23.70;;;;;;;3.82;91.73;97002.19;4956431;28;20966;-37
2021/12/30 11:14:32;;;;;;;10.63;7.97;;;;;;;3.84;91.02;97008.06;4956333;28;20440;-37
2021/12/30 11:17:10;;;;;;;15.60;8.97;;;;;;;3.74;89.97;97012.81;4956611;28;20489;-38
2021/12/30 11:19:41;;;;;;;38.70;23.90;;;;;;;3.75;91.64;97004.75;4956214;28;20559;-37
2021/12/30 11:22:12;;;;;;;22.87;16.97;;;;;;;3.61;92.89;96982.78;4956338;28;20429;-38
2021/12/30 11:24:40;;;;;;;24.43;15.00;;;;;;;3.90;92.60;97005.50;4956519;28;20433;-39
2021/12/30 11:27:10;;;;;;;43.27;23.37;;;;;;;3.96;92.02;97009.19;4956158;29;20481;-39
2021/12/30 11:29:40;;;;;;;49.83;30.43;;;;;;;3.90;91.26;97005.50;4956056;28;20505;-38
2021/12/30 11:32:09;;;;;;;49.33;25.67;;;;;;;3.90;91.51;97012.56;4956417;28;20814;-39
2021/12/30 11:34:38;;;;;;;81.90;36.93;;;;;;;3.92;92.17;97015.03;4956228;28;20445;-39